sensor_id;sensor_type;location;lat;lon;timestamp;P1;durP1;ratioP1;P2;durP2;ratioP2
42586;SDS011;28216;53.362;-6.288;2023-06-01T00:01:58;12.38;;;8.88;;
42586;SDS011;28216;53.362;-6.288;2023-06-01T00:04:24;11.20;;;8.30;;
42586;SDS011;28216;53.362;-6.288;2023-06-01T00:06:49;12.30;;;8.32;;
42586;SDS011;28216;53.362;-6.288;2023-06-01T00:09:15;12.65;;;8.38;;
42586;SDS011;28216;53.362;-6.288;2023-06-01T00:11:41;11.65;;;7.90;;
42586;SDS011;28216;53.362;-6.288;2023-06-01T00:14:06;13.35;;;8.50;;
42586;SDS011;28216;53.362;-6.288;2023-06-01T00:16:32;13.88;;;8.90;;
42586;SDS011;28216;53.362;-6.288;2023-06-01T00:18:58;11.73;;;8.73;;
42586;SDS011;28216;53.362;-6.288;2023-06-01T00:21:25;14.43;;;9.13;;
42586;SDS011;28216;53.362;-6.288;2023-06-01T00:23:52;14.00;;;8.43;;
42586;SDS011;28216;53.362;-6.288;2023-06-01T00:26:17;11.85;;;8.45;;
42586;SDS011;28216;53.362;-6.288;2023-06-01T00:28:42;13.07;;;9.00;;
42586;SDS011;28216;53.362;-6.288;2023-06-01T00:31:08;12.65;;;9.02;;
42586;SDS011;28216;53.362;-6.288;2023-06-01T00:33:33;13.23;;;9.25;;
42586;SDS011;28216;53.362;-6.288;2023-06-01T00:35:59;15.93;;;9.10;;
42586;SDS011;28216;53.362;-6.288;2023-06-01T00:38:24;12.32;;;9.18;;
42586;SDS011;28216;53.362;-6.288;2023-06-01T00:40:50;15.50;;;9.43;;
42586;SDS011;28216;53.362;-6.288;2023-06-01T00:43:16;13.60;;;9.38;;
42586;SDS011;28216;53.362;-6.288;2023-06-01T00:45:42;13.40;;;9.35;;
42586;SDS011;28216;53.362;-6.288;2023-06-01T00:48:08;12.75;;;9.27;;
42586;SDS011;28216;53.362;-6.288;2023-06-01T00:50:33;12.82;;;9.40;;
42586;SDS011;28216;53.362;-6.288;2023-06-01T00:53:00;12.13;;;9.00;;
42586;SDS011;28216;53.362;-6.288;2023-06-01T00:55:27;11.88;;;8.63;;
42586;SDS011;28216;53.362;-6.288;2023-06-01T00:57:53;11.63;;;8.65;;
42586;SDS011;28216;53.362;-6.288;2023-06-01T01:00:20;13.18;;;8.57;;
42586;SDS011;28216;53.362;-6.288;2023-06-01T01:02:47;12.23;;;9.00;;
42586;SDS011;28216;53.362;-6.288;2023-06-01T01:05:14;11.98;;;8.98;;
42586;SDS011;28216;53.362;-6.288;2023-06-01T01:10:10;13.13;;;9.02;;
42586;SDS011;28216;53.362;-6.288;2023-06-01T01:13:04;12.80;;;8.65;;
42586;SDS011;28216;53.362;-6.288;2023-06-01T01:21:19;11.60;;;8.10;;
42586;SDS011;28216;53.362;-6.288;2023-06-01T01:29:54;11.27;;;8.73;;
42586;SDS011;28216;53.362;-6.288;2023-06-01T01:32:30;13.00;;;9.32;;
42586;SDS011;28216;53.362;-6.288;2023-06-01T01:34:56;13.98;;;9.25;;
42586;SDS011;28216;53.362;-6.288;2023-06-01T01:37:25;13.27;;;9.70;;
42586;SDS011;28216;53.362;-6.288;2023-06-01T01:39:51;13.60;;;9.38;;
42586;SDS011;28216;53.362;-6.288;2023-06-01T01:42:16;13.07;;;9.30;;
42586;SDS011;28216;53.362;-6.288;2023-06-01T01:44:42;12.27;;;9.35;;
42586;SDS011;28216;53.362;-6.288;2023-06-01T01:47:54;13.27;;;9.30;;
42586;SDS011;28216;53.362;-6.288;2023-06-01T01:50:06;14.32;;;9.55;;
42586;SDS011;28216;53.362;-6.288;2023-06-01T01:52:39;12.73;;;9.60;;
42586;SDS011;28216;53.362;-6.288;2023-06-01T01:55:07;14.40;;;9.60;;
42586;SDS011;28216;53.362;-6.288;2023-06-01T01:57:33;14.13;;;9.70;;
42586;SDS011;28216;53.362;-6.288;2023-06-01T02:00:00;12.98;;;9.57;;
42586;SDS011;28216;53.362;-6.288;2023-06-01T02:02:26;14.63;;;9.80;;
42586;SDS011;28216;53.362;-6.288;2023-06-01T02:04:52;13.52;;;9.70;;
42586;SDS011;28216;53.362;-6.288;2023-06-01T02:07:18;13.95;;;9.40;;
42586;SDS011;28216;53.362;-6.288;2023-06-01T02:09:43;12.60;;;9.55;;
42586;SDS011;28216;53.362;-6.288;2023-06-01T02:12:09;15.30;;;10.23;;
42586;SDS011;28216;53.362;-6.288;2023-06-01T02:14:35;13.82;;;9.57;;
42586;SDS011;28216;53.362;-6.288;2023-06-01T02:17:00;12.00;;;9.30;;
42586;SDS011;28216;53.362;-6.288;2023-06-01T02:19:26;14.00;;;10.50;;
42586;SDS011;28216;53.362;-6.288;2023-06-01T02:21:52;14.70;;;10.77;;
42586;SDS011;28216;53.362;-6.288;2023-06-01T02:24:18;16.23;;;11.35;;
42586;SDS011;28216;53.362;-6.288;2023-06-01T02:26:45;14.32;;;10.38;;
42586;SDS011;28216;53.362;-6.288;2023-06-01T02:29:11;16.77;;;11.20;;
42586;SDS011;28216;53.362;-6.288;2023-06-01T02:31:37;16.38;;;11.32;;
42586;SDS011;28216;53.362;-6.288;2023-06-01T02:34:03;15.20;;;10.38;;
42586;SDS011;28216;53.362;-6.288;2023-06-01T02:36:28;14.32;;;10.30;;
42586;SDS011;28216;53.362;-6.288;2023-06-01T02:38:57;15.57;;;10.88;;
42586;SDS011;28216;53.362;-6.288;2023-06-01T02:41:23;14.13;;;10.38;;
42586;SDS011;28216;53.362;-6.288;2023-06-01T02:43:50;16.58;;;11.18;;
42586;SDS011;28216;53.362;-6.288;2023-06-01T02:46:16;15.02;;;11.00;;
42586;SDS011;28216;53.362;-6.288;2023-06-01T02:48:42;15.93;;;10.25;;
42586;SDS011;28216;53.362;-6.288;2023-06-01T02:51:08;17.92;;;10.98;;
42586;SDS011;28216;53.362;-6.288;2023-06-01T02:53:34;14.73;;;10.45;;
42586;SDS011;28216;53.362;-6.288;2023-06-01T02:55:59;14.75;;;9.93;;
42586;SDS011;28216;53.362;-6.288;2023-06-01T02:58:25;18.13;;;11.50;;
42586;SDS011;28216;53.362;-6.288;2023-06-01T03:00:50;16.70;;;10.48;;
42586;SDS011;28216;53.362;-6.288;2023-06-01T03:03:16;17.15;;;10.65;;
42586;SDS011;28216;53.362;-6.288;2023-06-01T03:05:41;15.70;;;10.75;;
42586;SDS011;28216;53.362;-6.288;2023-06-01T03:08:08;16.75;;;10.90;;
42586;SDS011;28216;53.362;-6.288;2023-06-01T03:10:34;15.55;;;10.77;;
42586;SDS011;28216;53.362;-6.288;2023-06-01T03:12:59;20.17;;;11.02;;
42586;SDS011;28216;53.362;-6.288;2023-06-01T03:15:25;13.80;;;10.15;;
42586;SDS011;28216;53.362;-6.288;2023-06-01T03:17:52;15.25;;;10.45;;
42586;SDS011;28216;53.362;-6.288;2023-06-01T03:20:18;14.10;;;10.63;;
42586;SDS011;28216;53.362;-6.288;2023-06-01T03:22:44;13.55;;;10.18;;
42586;SDS011;28216;53.362;-6.288;2023-06-01T03:25:10;15.98;;;9.90;;
42586;SDS011;28216;53.362;-6.288;2023-06-01T03:27:41;14.82;;;10.23;;
42586;SDS011;28216;53.362;-6.288;2023-06-01T03:30:07;17.55;;;10.75;;
42586;SDS011;28216;53.362;-6.288;2023-06-01T03:32:40;15.00;;;10.10;;
42586;SDS011;28216;53.362;-6.288;2023-06-01T03:35:06;13.52;;;9.23;;
42586;SDS011;28216;53.362;-6.288;2023-06-01T03:37:33;14.48;;;9.68;;
42586;SDS011;28216;53.362;-6.288;2023-06-01T03:40:00;15.05;;;9.90;;
42586;SDS011;28216;53.362;-6.288;2023-06-01T03:42:25;13.23;;;10.10;;
42586;SDS011;28216;53.362;-6.288;2023-06-01T03:44:51;15.93;;;10.68;;
42586;SDS011;28216;53.362;-6.288;2023-06-01T03:47:17;15.43;;;9.95;;
42586;SDS011;28216;53.362;-6.288;2023-06-01T03:49:42;17.50;;;11.05;;
42586;SDS011;28216;53.362;-6.288;2023-06-01T03:52:08;15.93;;;11.23;;
42586;SDS011;28216;53.362;-6.288;2023-06-01T03:54:33;18.85;;;11.82;;
42586;SDS011;28216;53.362;-6.288;2023-06-01T03:56:59;16.23;;;11.15;;
42586;SDS011;28216;53.362;-6.288;2023-06-01T03:59:25;16.80;;;11.38;;
42586;SDS011;28216;53.362;-6.288;2023-06-01T04:01:51;21.70;;;12.85;;
42586;SDS011;28216;53.362;-6.288;2023-06-01T04:04:17;17.83;;;12.10;;
42586;SDS011;28216;53.362;-6.288;2023-06-01T04:06:46;16.25;;;12.77;;
42586;SDS011;28216;53.362;-6.288;2023-06-01T04:09:11;16.55;;;12.05;;
42586;SDS011;28216;53.362;-6.288;2023-06-01T04:11:38;18.00;;;12.05;;
42586;SDS011;28216;53.362;-6.288;2023-06-01T04:14:04;20.33;;;13.02;;
42586;SDS011;28216;53.362;-6.288;2023-06-01T04:16:30;20.10;;;12.27;;
42586;SDS011;28216;53.362;-6.288;2023-06-01T04:18:55;18.17;;;12.60;;
42586;SDS011;28216;53.362;-6.288;2023-06-01T04:21:21;20.27;;;12.25;;
42586;SDS011;28216;53.362;-6.288;2023-06-01T04:23:48;20.98;;;13.32;;
42586;SDS011;28216;53.362;-6.288;2023-06-01T04:26:14;19.35;;;12.70;;
42586;SDS011;28216;53.362;-6.288;2023-06-01T04:28:40;20.35;;;13.10;;
42586;SDS011;28216;53.362;-6.288;2023-06-01T04:31:09;21.20;;;12.45;;
42586;SDS011;28216;53.362;-6.288;2023-06-01T04:33:45;17.88;;;13.18;;
42586;SDS011;28216;53.362;-6.288;2023-06-01T04:36:12;20.92;;;13.25;;
42586;SDS011;28216;53.362;-6.288;2023-06-01T04:38:39;21.15;;;12.55;;
42586;SDS011;28216;53.362;-6.288;2023-06-01T04:41:07;18.08;;;12.63;;
42586;SDS011;28216;53.362;-6.288;2023-06-01T04:43:35;20.10;;;13.02;;
42586;SDS011;28216;53.362;-6.288;2023-06-01T04:46:03;21.02;;;12.52;;
42586;SDS011;28216;53.362;-6.288;2023-06-01T04:48:30;19.65;;;13.35;;
42586;SDS011;28216;53.362;-6.288;2023-06-01T04:50:57;22.20;;;12.77;;
42586;SDS011;28216;53.362;-6.288;2023-06-01T04:53:24;17.55;;;12.35;;
42586;SDS011;28216;53.362;-6.288;2023-06-01T04:55:50;20.25;;;13.32;;
42586;SDS011;28216;53.362;-6.288;2023-06-01T04:58:16;18.88;;;13.50;;
42586;SDS011;28216;53.362;-6.288;2023-06-01T05:00:42;20.25;;;13.90;;
42586;SDS011;28216;53.362;-6.288;2023-06-01T05:03:07;23.25;;;14.18;;
42586;SDS011;28216;53.362;-6.288;2023-06-01T05:05:33;20.85;;;14.80;;
42586;SDS011;28216;53.362;-6.288;2023-06-01T05:07:59;16.95;;;13.60;;
42586;SDS011;28216;53.362;-6.288;2023-06-01T05:10:25;21.08;;;14.48;;
42586;SDS011;28216;53.362;-6.288;2023-06-01T05:12:50;21.38;;;16.02;;
42586;SDS011;28216;53.362;-6.288;2023-06-01T05:15:16;23.10;;;15.60;;
42586;SDS011;28216;53.362;-6.288;2023-06-01T05:17:41;20.73;;;16.17;;
42586;SDS011;28216;53.362;-6.288;2023-06-01T05:20:08;24.27;;;16.85;;
42586;SDS011;28216;53.362;-6.288;2023-06-01T05:22:36;20.35;;;16.55;;
42586;SDS011;28216;53.362;-6.288;2023-06-01T05:25:02;20.73;;;16.25;;
42586;SDS011;28216;53.362;-6.288;2023-06-01T05:27:28;24.15;;;17.08;;
42586;SDS011;28216;53.362;-6.288;2023-06-01T05:29:53;20.50;;;17.23;;
42586;SDS011;28216;53.362;-6.288;2023-06-01T05:32:20;20.55;;;17.20;;
42586;SDS011;28216;53.362;-6.288;2023-06-01T05:34:45;21.10;;;16.02;;
42586;SDS011;28216;53.362;-6.288;2023-06-01T05:37:11;18.58;;;16.25;;
42586;SDS011;28216;53.362;-6.288;2023-06-01T05:39:37;21.73;;;16.52;;
42586;SDS011;28216;53.362;-6.288;2023-06-01T05:42:02;23.17;;;16.17;;
42586;SDS011;28216;53.362;-6.288;2023-06-01T05:44:28;19.13;;;16.08;;
42586;SDS011;28216;53.362;-6.288;2023-06-01T05:46:53;22.40;;;15.63;;
42586;SDS011;28216;53.362;-6.288;2023-06-01T05:49:19;21.65;;;16.58;;
42586;SDS011;28216;53.362;-6.288;2023-06-01T05:51:44;20.50;;;15.68;;
42586;SDS011;28216;53.362;-6.288;2023-06-01T05:54:11;20.38;;;15.85;;
42586;SDS011;28216;53.362;-6.288;2023-06-01T05:56:37;23.92;;;15.63;;
42586;SDS011;28216;53.362;-6.288;2023-06-01T05:59:03;20.98;;;14.65;;
42586;SDS011;28216;53.362;-6.288;2023-06-01T06:01:29;16.42;;;13.32;;
42586;SDS011;28216;53.362;-6.288;2023-06-01T06:03:54;16.98;;;13.40;;
42586;SDS011;28216;53.362;-6.288;2023-06-01T06:06:20;18.70;;;14.27;;
42586;SDS011;28216;53.362;-6.288;2023-06-01T06:08:47;16.50;;;13.32;;
42586;SDS011;28216;53.362;-6.288;2023-06-01T06:11:13;16.67;;;13.05;;
42586;SDS011;28216;53.362;-6.288;2023-06-01T06:13:38;14.25;;;12.68;;
42586;SDS011;28216;53.362;-6.288;2023-06-01T06:16:04;15.30;;;12.88;;
42586;SDS011;28216;53.362;-6.288;2023-06-01T06:18:29;18.58;;;12.80;;
42586;SDS011;28216;53.362;-6.288;2023-06-01T06:20:55;16.42;;;12.63;;
42586;SDS011;28216;53.362;-6.288;2023-06-01T06:23:20;16.05;;;13.15;;
42586;SDS011;28216;53.362;-6.288;2023-06-01T06:25:46;15.23;;;13.10;;
42586;SDS011;28216;53.362;-6.288;2023-06-01T06:28:11;18.23;;;13.02;;
42586;SDS011;28216;53.362;-6.288;2023-06-01T06:30:37;17.08;;;13.55;;
42586;SDS011;28216;53.362;-6.288;2023-06-01T06:33:02;17.02;;;13.43;;
42586;SDS011;28216;53.362;-6.288;2023-06-01T06:35:28;17.20;;;13.10;;
42586;SDS011;28216;53.362;-6.288;2023-06-01T06:37:53;14.70;;;12.30;;
42586;SDS011;28216;53.362;-6.288;2023-06-01T06:40:19;15.77;;;12.88;;
42586;SDS011;28216;53.362;-6.288;2023-06-01T06:42:45;16.40;;;12.73;;
42586;SDS011;28216;53.362;-6.288;2023-06-01T06:45:11;20.90;;;12.18;;
42586;SDS011;28216;53.362;-6.288;2023-06-01T06:47:39;17.48;;;12.82;;
42586;SDS011;28216;53.362;-6.288;2023-06-01T06:50:06;17.50;;;12.73;;
42586;SDS011;28216;53.362;-6.288;2023-06-01T06:52:32;16.77;;;12.43;;
42586;SDS011;28216;53.362;-6.288;2023-06-01T06:55:01;15.88;;;12.07;;
42586;SDS011;28216;53.362;-6.288;2023-06-01T06:57:27;16.65;;;12.40;;
42586;SDS011;28216;53.362;-6.288;2023-06-01T06:59:53;15.32;;;12.60;;
42586;SDS011;28216;53.362;-6.288;2023-06-01T07:02:18;15.63;;;12.45;;
42586;SDS011;28216;53.362;-6.288;2023-06-01T07:04:44;12.70;;;11.43;;
42586;SDS011;28216;53.362;-6.288;2023-06-01T07:07:09;14.15;;;10.90;;
42586;SDS011;28216;53.362;-6.288;2023-06-01T07:09:35;14.20;;;10.63;;
42586;SDS011;28216;53.362;-6.288;2023-06-01T07:12:01;13.52;;;10.85;;
42586;SDS011;28216;53.362;-6.288;2023-06-01T07:14:26;16.08;;;11.00;;
42586;SDS011;28216;53.362;-6.288;2023-06-01T07:16:57;12.90;;;10.75;;
42586;SDS011;28216;53.362;-6.288;2023-06-01T07:22:10;13.32;;;10.40;;
42586;SDS011;28216;53.362;-6.288;2023-06-01T07:24:35;15.13;;;10.70;;
42586;SDS011;28216;53.362;-6.288;2023-06-01T07:27:01;11.57;;;10.20;;
42586;SDS011;28216;53.362;-6.288;2023-06-01T07:29:26;16.05;;;10.43;;
42586;SDS011;28216;53.362;-6.288;2023-06-01T07:31:53;17.10;;;11.25;;
42586;SDS011;28216;53.362;-6.288;2023-06-01T07:37:02;14.68;;;10.52;;
42586;SDS011;28216;53.362;-6.288;2023-06-01T07:39:29;10.77;;;9.65;;
42586;SDS011;28216;53.362;-6.288;2023-06-01T07:41:55;12.40;;;10.13;;
42586;SDS011;28216;53.362;-6.288;2023-06-01T07:44:21;13.13;;;9.88;;
42586;SDS011;28216;53.362;-6.288;2023-06-01T07:46:46;12.90;;;10.98;;
42586;SDS011;28216;53.362;-6.288;2023-06-01T07:49:12;15.02;;;9.63;;
42586;SDS011;28216;53.362;-6.288;2023-06-01T07:51:40;13.70;;;10.52;;
42586;SDS011;28216;53.362;-6.288;2023-06-01T07:54:06;14.57;;;10.18;;
42586;SDS011;28216;53.362;-6.288;2023-06-01T07:56:31;12.38;;;10.35;;
42586;SDS011;28216;53.362;-6.288;2023-06-01T07:58:57;12.60;;;10.02;;
42586;SDS011;28216;53.362;-6.288;2023-06-01T08:01:22;11.52;;;9.57;;
42586;SDS011;28216;53.362;-6.288;2023-06-01T08:03:48;13.63;;;10.07;;
42586;SDS011;28216;53.362;-6.288;2023-06-01T08:06:14;12.13;;;10.35;;
42586;SDS011;28216;53.362;-6.288;2023-06-01T08:08:40;15.05;;;9.43;;
42586;SDS011;28216;53.362;-6.288;2023-06-01T08:11:06;10.95;;;8.30;;
42586;SDS011;28216;53.362;-6.288;2023-06-01T08:13:33;11.07;;;7.93;;
42586;SDS011;28216;53.362;-6.288;2023-06-01T08:16:01;11.70;;;8.20;;
42586;SDS011;28216;53.362;-6.288;2023-06-01T08:18:27;13.45;;;8.45;;
42586;SDS011;28216;53.362;-6.288;2023-06-01T08:20:54;11.05;;;8.07;;
42586;SDS011;28216;53.362;-6.288;2023-06-01T08:23:20;12.95;;;7.45;;
42586;SDS011;28216;53.362;-6.288;2023-06-01T08:25:47;11.48;;;7.70;;
42586;SDS011;28216;53.362;-6.288;2023-06-01T08:28:13;11.15;;;7.38;;
42586;SDS011;28216;53.362;-6.288;2023-06-01T08:30:39;10.25;;;7.57;;
42586;SDS011;28216;53.362;-6.288;2023-06-01T08:33:05;11.35;;;7.90;;
42586;SDS011;28216;53.362;-6.288;2023-06-01T08:35:31;9.23;;;7.63;;
42586;SDS011;28216;53.362;-6.288;2023-06-01T08:37:59;14.48;;;7.60;;
42586;SDS011;28216;53.362;-6.288;2023-06-01T08:40:28;10.88;;;7.90;;
42586;SDS011;28216;53.362;-6.288;2023-06-01T08:42:59;9.00;;;6.72;;
42586;SDS011;28216;53.362;-6.288;2023-06-01T08:45:31;11.05;;;7.40;;
42586;SDS011;28216;53.362;-6.288;2023-06-01T08:47:58;12.30;;;7.15;;
42586;SDS011;28216;53.362;-6.288;2023-06-01T08:50:23;11.18;;;7.85;;
42586;SDS011;28216;53.362;-6.288;2023-06-01T08:52:55;8.25;;;7.07;;
42586;SDS011;28216;53.362;-6.288;2023-06-01T08:55:22;9.55;;;7.50;;
42586;SDS011;28216;53.362;-6.288;2023-06-01T08:57:48;11.25;;;7.57;;
42586;SDS011;28216;53.362;-6.288;2023-06-01T09:00:14;12.35;;;7.05;;
42586;SDS011;28216;53.362;-6.288;2023-06-01T09:02:41;9.80;;;7.38;;
42586;SDS011;28216;53.362;-6.288;2023-06-01T09:05:08;11.10;;;7.50;;
42586;SDS011;28216;53.362;-6.288;2023-06-01T09:07:34;13.25;;;7.40;;
42586;SDS011;28216;53.362;-6.288;2023-06-01T09:09:59;12.05;;;7.15;;
42586;SDS011;28216;53.362;-6.288;2023-06-01T09:12:29;10.93;;;7.07;;
42586;SDS011;28216;53.362;-6.288;2023-06-01T09:17:33;11.30;;;7.82;;
42586;SDS011;28216;53.362;-6.288;2023-06-01T09:19:59;14.18;;;7.68;;
42586;SDS011;28216;53.362;-6.288;2023-06-01T09:22:24;11.98;;;7.85;;
42586;SDS011;28216;53.362;-6.288;2023-06-01T09:25:03;12.82;;;7.88;;
42586;SDS011;28216;53.362;-6.288;2023-06-01T09:27:29;11.60;;;7.88;;
42586;SDS011;28216;53.362;-6.288;2023-06-01T09:30:06;13.43;;;8.07;;
42586;SDS011;28216;53.362;-6.288;2023-06-01T09:32:32;10.23;;;7.93;;
42586;SDS011;28216;53.362;-6.288;2023-06-01T09:34:58;12.63;;;7.90;;
42586;SDS011;28216;53.362;-6.288;2023-06-01T09:37:24;13.20;;;7.65;;
42586;SDS011;28216;53.362;-6.288;2023-06-01T09:39:50;11.77;;;7.97;;
42586;SDS011;28216;53.362;-6.288;2023-06-01T09:42:16;11.73;;;7.85;;
42586;SDS011;28216;53.362;-6.288;2023-06-01T09:44:41;14.52;;;8.15;;
42586;SDS011;28216;53.362;-6.288;2023-06-01T09:47:08;13.52;;;8.18;;
42586;SDS011;28216;53.362;-6.288;2023-06-01T09:49:38;8.95;;;7.10;;
42586;SDS011;28216;53.362;-6.288;2023-06-01T09:54:31;11.07;;;7.72;;
42586;SDS011;28216;53.362;-6.288;2023-06-01T09:57:01;10.95;;;7.40;;
42586;SDS011;28216;53.362;-6.288;2023-06-01T09:59:28;13.85;;;8.10;;
42586;SDS011;28216;53.362;-6.288;2023-06-01T10:01:56;13.57;;;7.80;;
42586;SDS011;28216;53.362;-6.288;2023-06-01T10:04:27;12.35;;;7.65;;
42586;SDS011;28216;53.362;-6.288;2023-06-01T10:06:54;12.70;;;8.43;;
42586;SDS011;28216;53.362;-6.288;2023-06-01T10:09:21;11.10;;;7.32;;
42586;SDS011;28216;53.362;-6.288;2023-06-01T10:11:50;12.35;;;7.60;;
42586;SDS011;28216;53.362;-6.288;2023-06-01T10:14:20;12.43;;;6.90;;
42586;SDS011;28216;53.362;-6.288;2023-06-01T10:16:48;10.48;;;7.22;;
42586;SDS011;28216;53.362;-6.288;2023-06-01T10:19:15;10.52;;;7.15;;
42586;SDS011;28216;53.362;-6.288;2023-06-01T10:21:40;13.93;;;7.57;;
42586;SDS011;28216;53.362;-6.288;2023-06-01T10:24:09;11.20;;;7.38;;
42586;SDS011;28216;53.362;-6.288;2023-06-01T10:26:41;9.13;;;7.00;;
42586;SDS011;28216;53.362;-6.288;2023-06-01T10:29:12;11.85;;;7.20;;
42586;SDS011;28216;53.362;-6.288;2023-06-01T10:31:41;9.88;;;6.22;;
42586;SDS011;28216;53.362;-6.288;2023-06-01T10:34:11;13.70;;;7.10;;
42586;SDS011;28216;53.362;-6.288;2023-06-01T10:37:22;12.75;;;7.07;;
42586;SDS011;28216;53.362;-6.288;2023-06-01T10:39:26;10.43;;;7.00;;
42586;SDS011;28216;53.362;-6.288;2023-06-01T10:41:55;12.48;;;7.53;;
42586;SDS011;28216;53.362;-6.288;2023-06-01T10:47:03;11.52;;;8.00;;
42586;SDS011;28216;53.362;-6.288;2023-06-01T10:52:28;10.20;;;7.50;;
42586;SDS011;28216;53.362;-6.288;2023-06-01T10:57:39;10.40;;;6.82;;
42586;SDS011;28216;53.362;-6.288;2023-06-01T11:00:12;14.70;;;7.78;;
42586;SDS011;28216;53.362;-6.288;2023-06-01T11:13:34;13.48;;;7.45;;
42586;SDS011;28216;53.362;-6.288;2023-06-01T11:23:49;13.35;;;8.20;;
42586;SDS011;28216;53.362;-6.288;2023-06-01T11:26:19;16.83;;;8.80;;
42586;SDS011;28216;53.362;-6.288;2023-06-01T11:28:49;12.30;;;8.07;;
42586;SDS011;28216;53.362;-6.288;2023-06-01T11:31:16;15.48;;;8.68;;
42586;SDS011;28216;53.362;-6.288;2023-06-01T11:33:50;15.30;;;8.38;;
42586;SDS011;28216;53.362;-6.288;2023-06-01T11:36:23;11.15;;;8.65;;
42586;SDS011;28216;53.362;-6.288;2023-06-01T11:38:50;12.98;;;9.13;;
42586;SDS011;28216;53.362;-6.288;2023-06-01T11:41:16;12.38;;;8.30;;
42586;SDS011;28216;53.362;-6.288;2023-06-01T11:43:44;12.63;;;8.48;;
42586;SDS011;28216;53.362;-6.288;2023-06-01T11:46:09;13.90;;;8.57;;
42586;SDS011;28216;53.362;-6.288;2023-06-01T11:48:35;12.88;;;8.98;;
42586;SDS011;28216;53.362;-6.288;2023-06-01T11:51:01;14.75;;;9.30;;
42586;SDS011;28216;53.362;-6.288;2023-06-01T11:53:31;10.95;;;8.25;;
42586;SDS011;28216;53.362;-6.288;2023-06-01T11:55:57;14.02;;;8.15;;
42586;SDS011;28216;53.362;-6.288;2023-06-01T11:58:23;11.80;;;8.77;;
42586;SDS011;28216;53.362;-6.288;2023-06-01T12:00:50;10.85;;;8.52;;
42586;SDS011;28216;53.362;-6.288;2023-06-01T12:03:16;11.48;;;8.85;;
42586;SDS011;28216;53.362;-6.288;2023-06-01T12:05:42;12.55;;;9.00;;
42586;SDS011;28216;53.362;-6.288;2023-06-01T12:08:20;13.65;;;8.68;;
42586;SDS011;28216;53.362;-6.288;2023-06-01T12:10:51;11.40;;;9.05;;
42586;SDS011;28216;53.362;-6.288;2023-06-01T12:13:18;11.18;;;8.50;;
42586;SDS011;28216;53.362;-6.288;2023-06-01T12:15:45;12.88;;;8.70;;
42586;SDS011;28216;53.362;-6.288;2023-06-01T12:18:11;14.52;;;8.85;;
42586;SDS011;28216;53.362;-6.288;2023-06-01T12:20:38;17.25;;;9.25;;
42586;SDS011;28216;53.362;-6.288;2023-06-01T12:25:34;10.68;;;8.40;;
42586;SDS011;28216;53.362;-6.288;2023-06-01T12:28:04;13.27;;;8.98;;
42586;SDS011;28216;53.362;-6.288;2023-06-01T12:30:31;13.13;;;8.80;;
42586;SDS011;28216;53.362;-6.288;2023-06-01T12:32:57;11.80;;;8.55;;
42586;SDS011;28216;53.362;-6.288;2023-06-01T12:35:23;11.25;;;8.07;;
42586;SDS011;28216;53.362;-6.288;2023-06-01T12:40:35;11.80;;;8.45;;
42586;SDS011;28216;53.362;-6.288;2023-06-01T12:43:01;9.43;;;7.55;;
42586;SDS011;28216;53.362;-6.288;2023-06-01T12:45:39;9.35;;;7.85;;
42586;SDS011;28216;53.362;-6.288;2023-06-01T12:48:05;11.50;;;7.93;;
42586;SDS011;28216;53.362;-6.288;2023-06-01T12:50:31;11.15;;;7.63;;
42586;SDS011;28216;53.362;-6.288;2023-06-01T12:52:57;11.57;;;7.47;;
42586;SDS011;28216;53.362;-6.288;2023-06-01T12:55:22;13.13;;;7.78;;
42586;SDS011;28216;53.362;-6.288;2023-06-01T12:57:54;12.80;;;8.05;;
42586;SDS011;28216;53.362;-6.288;2023-06-01T13:00:20;11.32;;;7.70;;
42586;SDS011;28216;53.362;-6.288;2023-06-01T13:02:46;9.50;;;7.28;;
42586;SDS011;28216;53.362;-6.288;2023-06-01T13:05:14;11.18;;;7.43;;
42586;SDS011;28216;53.362;-6.288;2023-06-01T13:07:42;10.15;;;7.10;;
42586;SDS011;28216;53.362;-6.288;2023-06-01T13:10:08;14.13;;;8.10;;
42586;SDS011;28216;53.362;-6.288;2023-06-01T13:12:35;9.93;;;7.63;;
42586;SDS011;28216;53.362;-6.288;2023-06-01T13:15:01;13.13;;;7.85;;
42586;SDS011;28216;53.362;-6.288;2023-06-01T13:17:28;11.07;;;7.70;;
42586;SDS011;28216;53.362;-6.288;2023-06-01T13:19:54;11.82;;;8.30;;
42586;SDS011;28216;53.362;-6.288;2023-06-01T13:22:20;13.07;;;7.97;;
42586;SDS011;28216;53.362;-6.288;2023-06-01T13:24:46;11.73;;;8.38;;
42586;SDS011;28216;53.362;-6.288;2023-06-01T13:27:13;10.77;;;8.38;;
42586;SDS011;28216;53.362;-6.288;2023-06-01T13:29:38;9.52;;;8.30;;
42586;SDS011;28216;53.362;-6.288;2023-06-01T13:32:04;10.40;;;8.65;;
42586;SDS011;28216;53.362;-6.288;2023-06-01T13:34:30;14.10;;;8.88;;
42586;SDS011;28216;53.362;-6.288;2023-06-01T13:36:56;11.07;;;8.65;;
42586;SDS011;28216;53.362;-6.288;2023-06-01T13:39:22;11.77;;;8.30;;
42586;SDS011;28216;53.362;-6.288;2023-06-01T13:41:48;12.05;;;8.50;;
42586;SDS011;28216;53.362;-6.288;2023-06-01T13:44:13;14.75;;;9.70;;
42586;SDS011;28216;53.362;-6.288;2023-06-01T13:46:39;13.73;;;8.70;;
42586;SDS011;28216;53.362;-6.288;2023-06-01T13:49:04;10.98;;;9.32;;
42586;SDS011;28216;53.362;-6.288;2023-06-01T13:51:30;11.98;;;8.20;;
42586;SDS011;28216;53.362;-6.288;2023-06-01T13:53:55;12.30;;;8.02;;
42586;SDS011;28216;53.362;-6.288;2023-06-01T13:56:21;11.00;;;8.15;;
42586;SDS011;28216;53.362;-6.288;2023-06-01T13:58:48;11.52;;;7.95;;
42586;SDS011;28216;53.362;-6.288;2023-06-01T14:01:13;8.75;;;6.82;;
42586;SDS011;28216;53.362;-6.288;2023-06-01T14:03:39;8.55;;;6.80;;
42586;SDS011;28216;53.362;-6.288;2023-06-01T14:06:04;9.82;;;7.47;;
42586;SDS011;28216;53.362;-6.288;2023-06-01T14:08:30;9.27;;;6.95;;
42586;SDS011;28216;53.362;-6.288;2023-06-01T14:10:56;13.45;;;8.00;;
42586;SDS011;28216;53.362;-6.288;2023-06-01T14:13:21;10.68;;;7.78;;
42586;SDS011;28216;53.362;-6.288;2023-06-01T14:15:47;10.57;;;7.45;;
42586;SDS011;28216;53.362;-6.288;2023-06-01T14:18:13;10.60;;;7.72;;
42586;SDS011;28216;53.362;-6.288;2023-06-01T14:20:38;13.05;;;7.55;;
42586;SDS011;28216;53.362;-6.288;2023-06-01T14:23:04;10.90;;;7.82;;
42586;SDS011;28216;53.362;-6.288;2023-06-01T14:25:30;10.45;;;7.82;;
42586;SDS011;28216;53.362;-6.288;2023-06-01T14:27:55;13.80;;;8.23;;
42586;SDS011;28216;53.362;-6.288;2023-06-01T14:30:21;9.25;;;7.38;;
42586;SDS011;28216;53.362;-6.288;2023-06-01T14:32:46;10.82;;;7.63;;
42586;SDS011;28216;53.362;-6.288;2023-06-01T14:35:12;10.57;;;7.10;;
42586;SDS011;28216;53.362;-6.288;2023-06-01T14:37:41;8.30;;;6.75;;
42586;SDS011;28216;53.362;-6.288;2023-06-01T14:40:08;11.85;;;6.70;;
42586;SDS011;28216;53.362;-6.288;2023-06-01T14:42:33;10.52;;;6.93;;
42586;SDS011;28216;53.362;-6.288;2023-06-01T14:44:59;7.80;;;6.13;;
42586;SDS011;28216;53.362;-6.288;2023-06-01T14:47:24;7.95;;;6.35;;
42586;SDS011;28216;53.362;-6.288;2023-06-01T14:49:52;10.93;;;6.82;;
42586;SDS011;28216;53.362;-6.288;2023-06-01T14:52:17;11.50;;;6.50;;
42586;SDS011;28216;53.362;-6.288;2023-06-01T14:54:43;7.00;;;6.20;;
42586;SDS011;28216;53.362;-6.288;2023-06-01T14:57:08;8.95;;;6.60;;
42586;SDS011;28216;53.362;-6.288;2023-06-01T14:59:34;9.35;;;6.60;;
42586;SDS011;28216;53.362;-6.288;2023-06-01T15:02:01;11.65;;;6.68;;
42586;SDS011;28216;53.362;-6.288;2023-06-01T15:04:28;10.45;;;6.47;;
42586;SDS011;28216;53.362;-6.288;2023-06-01T15:06:54;8.07;;;6.03;;
42586;SDS011;28216;53.362;-6.288;2023-06-01T15:09:20;13.88;;;6.25;;
42586;SDS011;28216;53.362;-6.288;2023-06-01T15:11:45;8.32;;;6.18;;
42586;SDS011;28216;53.362;-6.288;2023-06-01T15:14:11;10.00;;;6.85;;